Pequabuck, Connecticut
Current Conditions -  °F | °C
As of 8:53 PM on Saturday 22 Nov 2014 (Local Time) from KMMK Reporting Station
Overcast Overcast  
Wind Chill: 37°   Ceiling: 5500
Heat Index: 42°   Visibility: 10mi
Dew Point: 18°   Wind: 8mph
Humidity: 38%   Direction: 210°SSW
Pressure: 30.18"   Gusts: NA
Location:  41.67°N, 72.99°W
Report Text: KMMK 230153Z AUTO 21007KT 190V250 10SM OVC055 06/M08 A3018 RMK AO2 SLP222 T00561078 TSNO
Loading
Personal Weather Stations






























Interactive Weather Map New forecast layout! Learn more

10-Day Weather Forecast

Advertisements
Track Severe Weather on mobile